sensor_id;sensor_type;location;lat;lon;timestamp;P1;durP1;ratioP1;P2;durP2;ratioP2
13026;SDS011;6580;42.680;23.324;2023-02-15T00:02:03;34.20;;;23.77;;
13026;SDS011;6580;42.680;23.324;2023-02-15T00:04:30;33.63;;;24.17;;
13026;SDS011;6580;42.680;23.324;2023-02-15T00:07:13;33.50;;;23.93;;
13026;SDS011;6580;42.680;23.324;2023-02-15T00:09:48;30.70;;;22.10;;
13026;SDS011;6580;42.680;23.324;2023-02-15T00:12:18;34.73;;;24.63;;
13026;SDS011;6580;42.680;23.324;2023-02-15T00:14:49;33.37;;;23.63;;
13026;SDS011;6580;42.680;23.324;2023-02-15T00:17:15;33.43;;;23.70;;
13026;SDS011;6580;42.680;23.324;2023-02-15T00:19:45;32.20;;;23.67;;
13026;SDS011;6580;42.680;23.324;2023-02-15T00:22:13;33.33;;;24.07;;
13026;SDS011;6580;42.680;23.324;2023-02-15T00:24:41;29.60;;;22.17;;
13026;SDS011;6580;42.680;23.324;2023-02-15T00:27:09;32.73;;;23.30;;
13026;SDS011;6580;42.680;23.324;2023-02-15T00:29:37;29.77;;;21.77;;
13026;SDS011;6580;42.680;23.324;2023-02-15T00:32:04;34.87;;;24.97;;
13026;SDS011;6580;42.680;23.324;2023-02-15T00:34:33;29.03;;;22.03;;
13026;SDS011;6580;42.680;23.324;2023-02-15T00:37:03;33.30;;;23.47;;
13026;SDS011;6580;42.680;23.324;2023-02-15T00:39:37;34.33;;;22.17;;
13026;SDS011;6580;42.680;23.324;2023-02-15T00:42:04;34.77;;;23.83;;
13026;SDS011;6580;42.680;23.324;2023-02-15T00:44:32;31.57;;;23.23;;
13026;SDS011;6580;42.680;23.324;2023-02-15T00:47:02;32.30;;;23.90;;
13026;SDS011;6580;42.680;23.324;2023-02-15T00:49:30;34.40;;;24.17;;
13026;SDS011;6580;42.680;23.324;2023-02-15T00:51:59;30.97;;;23.20;;
13026;SDS011;6580;42.680;23.324;2023-02-15T00:54:34;30.47;;;22.90;;
13026;SDS011;6580;42.680;23.324;2023-02-15T00:57:10;32.13;;;23.93;;
13026;SDS011;6580;42.680;23.324;2023-02-15T00:59:38;31.37;;;23.27;;
13026;SDS011;6580;42.680;23.324;2023-02-15T01:02:06;34.87;;;24.27;;
13026;SDS011;6580;42.680;23.324;2023-02-15T01:04:33;30.87;;;22.80;;
13026;SDS011;6580;42.680;23.324;2023-02-15T01:07:01;33.53;;;24.27;;
13026;SDS011;6580;42.680;23.324;2023-02-15T01:09:31;33.47;;;24.73;;
13026;SDS011;6580;42.680;23.324;2023-02-15T01:11:58;31.70;;;22.67;;
13026;SDS011;6580;42.680;23.324;2023-02-15T01:14:28;32.93;;;23.27;;
13026;SDS011;6580;42.680;23.324;2023-02-15T01:16:55;28.93;;;21.97;;
13026;SDS011;6580;42.680;23.324;2023-02-15T01:19:25;29.97;;;22.87;;
13026;SDS011;6580;42.680;23.324;2023-02-15T01:21:54;28.60;;;21.97;;
13026;SDS011;6580;42.680;23.324;2023-02-15T01:24:21;32.57;;;23.00;;
13026;SDS011;6580;42.680;23.324;2023-02-15T01:26:49;32.40;;;22.97;;
13026;SDS011;6580;42.680;23.324;2023-02-15T01:29:17;30.43;;;22.73;;
13026;SDS011;6580;42.680;23.324;2023-02-15T01:31:44;30.00;;;23.10;;
13026;SDS011;6580;42.680;23.324;2023-02-15T01:34:12;32.60;;;23.13;;
13026;SDS011;6580;42.680;23.324;2023-02-15T01:36:44;29.50;;;22.13;;
13026;SDS011;6580;42.680;23.324;2023-02-15T01:39:17;32.67;;;22.77;;
13026;SDS011;6580;42.680;23.324;2023-02-15T01:41:45;30.27;;;21.80;;
13026;SDS011;6580;42.680;23.324;2023-02-15T01:47:13;30.60;;;22.67;;
13026;SDS011;6580;42.680;23.324;2023-02-15T01:49:42;32.27;;;23.33;;
13026;SDS011;6580;42.680;23.324;2023-02-15T01:52:14;28.47;;;21.87;;
13026;SDS011;6580;42.680;23.324;2023-02-15T01:54:48;29.30;;;21.87;;
13026;SDS011;6580;42.680;23.324;2023-02-15T01:57:16;32.43;;;22.70;;
13026;SDS011;6580;42.680;23.324;2023-02-15T01:59:51;32.60;;;22.63;;
13026;SDS011;6580;42.680;23.324;2023-02-15T02:02:21;30.60;;;22.83;;
13026;SDS011;6580;42.680;23.324;2023-02-15T02:04:50;33.03;;;22.73;;
13026;SDS011;6580;42.680;23.324;2023-02-15T02:07:34;31.47;;;23.27;;
13026;SDS011;6580;42.680;23.324;2023-02-15T02:10:06;29.20;;;20.17;;
13026;SDS011;6580;42.680;23.324;2023-02-15T02:12:35;29.70;;;21.50;;
13026;SDS011;6580;42.680;23.324;2023-02-15T02:15:08;28.97;;;21.53;;
13026;SDS011;6580;42.680;23.324;2023-02-15T02:17:42;33.93;;;22.03;;
13026;SDS011;6580;42.680;23.324;2023-02-15T02:20:30;30.30;;;21.90;;
13026;SDS011;6580;42.680;23.324;2023-02-15T02:23:25;29.73;;;21.00;;
13026;SDS011;6580;42.680;23.324;2023-02-15T02:29:33;26.27;;;20.60;;
13026;SDS011;6580;42.680;23.324;2023-02-15T02:32:34;31.30;;;21.43;;
13026;SDS011;6580;42.680;23.324;2023-02-15T02:35:25;28.93;;;21.23;;
13026;SDS011;6580;42.680;23.324;2023-02-15T02:38:03;30.17;;;20.83;;
13026;SDS011;6580;42.680;23.324;2023-02-15T02:40:41;26.97;;;19.70;;
13026;SDS011;6580;42.680;23.324;2023-02-15T02:43:15;27.67;;;20.27;;
13026;SDS011;6580;42.680;23.324;2023-02-15T02:45:49;28.00;;;20.90;;
13026;SDS011;6580;42.680;23.324;2023-02-15T02:48:25;28.80;;;21.63;;
13026;SDS011;6580;42.680;23.324;2023-02-15T02:50:57;26.07;;;20.43;;
13026;SDS011;6580;42.680;23.324;2023-02-15T02:53:24;28.10;;;20.23;;
13026;SDS011;6580;42.680;23.324;2023-02-15T02:55:55;29.97;;;22.77;;
13026;SDS011;6580;42.680;23.324;2023-02-15T02:58:26;28.97;;;21.43;;
13026;SDS011;6580;42.680;23.324;2023-02-15T03:00:59;27.63;;;21.13;;
13026;SDS011;6580;42.680;23.324;2023-02-15T03:03:32;30.77;;;21.30;;
13026;SDS011;6580;42.680;23.324;2023-02-15T03:06:05;30.37;;;20.47;;
13026;SDS011;6580;42.680;23.324;2023-02-15T03:08:36;25.90;;;19.33;;
13026;SDS011;6580;42.680;23.324;2023-02-15T03:11:09;28.63;;;20.23;;
13026;SDS011;6580;42.680;23.324;2023-02-15T03:13:38;29.33;;;20.40;;
13026;SDS011;6580;42.680;23.324;2023-02-15T03:16:09;26.80;;;20.73;;
13026;SDS011;6580;42.680;23.324;2023-02-15T03:18:53;30.33;;;20.77;;
13026;SDS011;6580;42.680;23.324;2023-02-15T03:21:40;25.27;;;19.63;;
13026;SDS011;6580;42.680;23.324;2023-02-15T03:24:23;28.00;;;20.30;;
13026;SDS011;6580;42.680;23.324;2023-02-15T03:26:53;27.50;;;20.63;;
13026;SDS011;6580;42.680;23.324;2023-02-15T03:29:23;24.67;;;19.37;;
13026;SDS011;6580;42.680;23.324;2023-02-15T03:31:55;25.93;;;19.43;;
13026;SDS011;6580;42.680;23.324;2023-02-15T03:34:33;26.93;;;20.43;;
13026;SDS011;6580;42.680;23.324;2023-02-15T03:37:03;26.53;;;19.80;;
13026;SDS011;6580;42.680;23.324;2023-02-15T03:39:40;24.87;;;19.17;;
13026;SDS011;6580;42.680;23.324;2023-02-15T03:42:13;27.20;;;21.00;;
13026;SDS011;6580;42.680;23.324;2023-02-15T03:44:47;24.77;;;19.43;;
13026;SDS011;6580;42.680;23.324;2023-02-15T03:47:23;28.33;;;20.00;;
13026;SDS011;6580;42.680;23.324;2023-02-15T03:49:55;29.73;;;20.90;;
13026;SDS011;6580;42.680;23.324;2023-02-15T03:52:28;26.07;;;20.23;;
13026;SDS011;6580;42.680;23.324;2023-02-15T03:54:56;24.70;;;18.87;;
13026;SDS011;6580;42.680;23.324;2023-02-15T03:57:24;24.03;;;19.50;;
13026;SDS011;6580;42.680;23.324;2023-02-15T04:00:12;24.73;;;18.70;;
13026;SDS011;6580;42.680;23.324;2023-02-15T04:03:11;25.87;;;20.83;;
13026;SDS011;6580;42.680;23.324;2023-02-15T04:05:53;27.90;;;20.07;;
13026;SDS011;6580;42.680;23.324;2023-02-15T04:08:23;27.23;;;20.47;;
13026;SDS011;6580;42.680;23.324;2023-02-15T04:11:10;26.23;;;18.77;;
13026;SDS011;6580;42.680;23.324;2023-02-15T04:13:37;25.13;;;18.83;;
13026;SDS011;6580;42.680;23.324;2023-02-15T04:16:06;25.90;;;20.30;;
13026;SDS011;6580;42.680;23.324;2023-02-15T04:18:33;25.43;;;19.00;;
13026;SDS011;6580;42.680;23.324;2023-02-15T04:21:21;28.83;;;20.23;;
13026;SDS011;6580;42.680;23.324;2023-02-15T04:24:10;29.43;;;20.17;;
13026;SDS011;6580;42.680;23.324;2023-02-15T04:26:55;26.50;;;19.27;;
13026;SDS011;6580;42.680;23.324;2023-02-15T04:29:24;24.43;;;19.17;;
13026;SDS011;6580;42.680;23.324;2023-02-15T04:31:52;25.13;;;18.67;;
13026;SDS011;6580;42.680;23.324;2023-02-15T04:34:20;27.77;;;20.27;;
13026;SDS011;6580;42.680;23.324;2023-02-15T04:36:48;26.33;;;20.37;;
13026;SDS011;6580;42.680;23.324;2023-02-15T04:39:17;25.50;;;18.33;;
13026;SDS011;6580;42.680;23.324;2023-02-15T04:41:45;24.93;;;19.30;;
13026;SDS011;6580;42.680;23.324;2023-02-15T04:44:13;28.03;;;19.77;;
13026;SDS011;6580;42.680;23.324;2023-02-15T04:46:40;25.83;;;20.27;;
13026;SDS011;6580;42.680;23.324;2023-02-15T04:49:07;27.93;;;20.53;;
13026;SDS011;6580;42.680;23.324;2023-02-15T04:51:34;25.37;;;18.90;;
13026;SDS011;6580;42.680;23.324;2023-02-15T04:54:02;25.53;;;18.63;;
13026;SDS011;6580;42.680;23.324;2023-02-15T04:56:35;25.30;;;18.17;;
13026;SDS011;6580;42.680;23.324;2023-02-15T04:59:04;24.87;;;19.27;;
13026;SDS011;6580;42.680;23.324;2023-02-15T05:01:31;27.30;;;21.27;;
13026;SDS011;6580;42.680;23.324;2023-02-15T05:03:58;26.60;;;20.30;;
13026;SDS011;6580;42.680;23.324;2023-02-15T05:06:25;27.40;;;19.80;;
13026;SDS011;6580;42.680;23.324;2023-02-15T05:08:52;31.53;;;21.40;;
13026;SDS011;6580;42.680;23.324;2023-02-15T05:11:19;26.63;;;19.77;;
13026;SDS011;6580;42.680;23.324;2023-02-15T05:13:48;27.67;;;19.77;;
13026;SDS011;6580;42.680;23.324;2023-02-15T05:16:17;26.17;;;20.07;;
13026;SDS011;6580;42.680;23.324;2023-02-15T05:18:44;26.93;;;20.20;;
13026;SDS011;6580;42.680;23.324;2023-02-15T05:21:11;28.27;;;21.07;;
13026;SDS011;6580;42.680;23.324;2023-02-15T05:23:44;28.37;;;20.67;;
13026;SDS011;6580;42.680;23.324;2023-02-15T05:26:12;26.80;;;19.17;;
13026;SDS011;6580;42.680;23.324;2023-02-15T05:29:04;25.40;;;18.90;;
13026;SDS011;6580;42.680;23.324;2023-02-15T05:31:33;29.97;;;20.37;;
13026;SDS011;6580;42.680;23.324;2023-02-15T05:34:02;26.50;;;19.70;;
13026;SDS011;6580;42.680;23.324;2023-02-15T05:36:29;27.90;;;20.30;;
13026;SDS011;6580;42.680;23.324;2023-02-15T05:38:56;24.07;;;19.43;;
13026;SDS011;6580;42.680;23.324;2023-02-15T05:41:25;28.77;;;20.87;;
13026;SDS011;6580;42.680;23.324;2023-02-15T05:43:54;24.63;;;20.03;;
13026;SDS011;6580;42.680;23.324;2023-02-15T05:46:23;28.57;;;19.90;;
13026;SDS011;6580;42.680;23.324;2023-02-15T05:48:50;26.93;;;20.60;;
13026;SDS011;6580;42.680;23.324;2023-02-15T05:51:17;26.93;;;19.40;;
13026;SDS011;6580;42.680;23.324;2023-02-15T05:53:45;28.00;;;20.47;;
13026;SDS011;6580;42.680;23.324;2023-02-15T05:56:12;28.07;;;19.60;;
13026;SDS011;6580;42.680;23.324;2023-02-15T05:58:39;26.03;;;19.20;;
13026;SDS011;6580;42.680;23.324;2023-02-15T06:01:08;26.23;;;19.43;;
13026;SDS011;6580;42.680;23.324;2023-02-15T06:03:37;27.37;;;19.87;;
13026;SDS011;6580;42.680;23.324;2023-02-15T06:06:05;24.47;;;19.20;;
13026;SDS011;6580;42.680;23.324;2023-02-15T06:08:32;25.57;;;20.57;;
13026;SDS011;6580;42.680;23.324;2023-02-15T06:11:00;25.47;;;19.33;;
13026;SDS011;6580;42.680;23.324;2023-02-15T06:13:27;28.70;;;20.73;;
13026;SDS011;6580;42.680;23.324;2023-02-15T06:15:54;26.00;;;19.93;;
13026;SDS011;6580;42.680;23.324;2023-02-15T06:18:21;27.40;;;19.33;;
13026;SDS011;6580;42.680;23.324;2023-02-15T06:20:50;25.23;;;19.10;;
13026;SDS011;6580;42.680;23.324;2023-02-15T06:23:16;23.77;;;18.40;;
13026;SDS011;6580;42.680;23.324;2023-02-15T06:25:44;27.70;;;19.80;;
13026;SDS011;6580;42.680;23.324;2023-02-15T06:28:13;27.97;;;20.10;;
13026;SDS011;6580;42.680;23.324;2023-02-15T06:30:39;24.00;;;18.83;;
13026;SDS011;6580;42.680;23.324;2023-02-15T06:33:09;26.37;;;19.27;;
13026;SDS011;6580;42.680;23.324;2023-02-15T06:35:35;25.33;;;19.30;;
13026;SDS011;6580;42.680;23.324;2023-02-15T06:38:03;27.37;;;19.57;;
13026;SDS011;6580;42.680;23.324;2023-02-15T06:40:30;25.53;;;19.10;;
13026;SDS011;6580;42.680;23.324;2023-02-15T06:42:57;24.00;;;18.23;;
13026;SDS011;6580;42.680;23.324;2023-02-15T06:45:24;23.07;;;18.57;;
13026;SDS011;6580;42.680;23.324;2023-02-15T06:47:53;24.60;;;18.37;;
13026;SDS011;6580;42.680;23.324;2023-02-15T06:50:22;23.30;;;17.80;;
13026;SDS011;6580;42.680;23.324;2023-02-15T06:52:49;25.83;;;18.03;;
13026;SDS011;6580;42.680;23.324;2023-02-15T06:55:19;23.53;;;17.57;;
13026;SDS011;6580;42.680;23.324;2023-02-15T06:57:46;22.63;;;16.23;;
13026;SDS011;6580;42.680;23.324;2023-02-15T07:00:14;23.40;;;17.27;;
13026;SDS011;6580;42.680;23.324;2023-02-15T07:02:44;22.90;;;17.00;;
13026;SDS011;6580;42.680;23.324;2023-02-15T07:05:11;21.53;;;16.33;;
13026;SDS011;6580;42.680;23.324;2023-02-15T07:07:40;20.90;;;17.13;;
13026;SDS011;6580;42.680;23.324;2023-02-15T07:10:07;22.80;;;17.53;;
13026;SDS011;6580;42.680;23.324;2023-02-15T07:12:37;20.73;;;16.77;;
13026;SDS011;6580;42.680;23.324;2023-02-15T07:15:07;20.70;;;16.77;;
13026;SDS011;6580;42.680;23.324;2023-02-15T07:17:37;21.33;;;16.40;;
13026;SDS011;6580;42.680;23.324;2023-02-15T07:20:04;20.43;;;15.83;;
13026;SDS011;6580;42.680;23.324;2023-02-15T07:22:33;20.60;;;15.83;;
13026;SDS011;6580;42.680;23.324;2023-02-15T07:25:03;20.40;;;16.37;;
13026;SDS011;6580;42.680;23.324;2023-02-15T07:27:31;21.57;;;16.40;;
13026;SDS011;6580;42.680;23.324;2023-02-15T07:30:00;18.60;;;15.37;;
13026;SDS011;6580;42.680;23.324;2023-02-15T07:32:27;23.53;;;17.20;;
13026;SDS011;6580;42.680;23.324;2023-02-15T07:34:55;22.03;;;16.73;;
13026;SDS011;6580;42.680;23.324;2023-02-15T07:37:22;20.27;;;17.07;;
13026;SDS011;6580;42.680;23.324;2023-02-15T07:39:50;21.30;;;16.03;;
13026;SDS011;6580;42.680;23.324;2023-02-15T07:42:16;21.90;;;17.20;;
13026;SDS011;6580;42.680;23.324;2023-02-15T07:44:45;21.33;;;17.33;;
13026;SDS011;6580;42.680;23.324;2023-02-15T07:47:13;18.63;;;16.07;;
13026;SDS011;6580;42.680;23.324;2023-02-15T07:49:40;19.07;;;16.07;;
13026;SDS011;6580;42.680;23.324;2023-02-15T07:52:07;22.73;;;16.30;;
13026;SDS011;6580;42.680;23.324;2023-02-15T07:54:34;20.33;;;16.60;;
13026;SDS011;6580;42.680;23.324;2023-02-15T07:57:01;22.57;;;16.63;;
13026;SDS011;6580;42.680;23.324;2023-02-15T07:59:28;25.33;;;17.97;;
13026;SDS011;6580;42.680;23.324;2023-02-15T08:01:55;19.33;;;15.30;;
13026;SDS011;6580;42.680;23.324;2023-02-15T08:04:24;23.17;;;17.00;;
13026;SDS011;6580;42.680;23.324;2023-02-15T08:06:52;23.63;;;16.20;;
13026;SDS011;6580;42.680;23.324;2023-02-15T08:09:21;19.60;;;16.03;;
13026;SDS011;6580;42.680;23.324;2023-02-15T08:11:49;20.30;;;16.10;;
13026;SDS011;6580;42.680;23.324;2023-02-15T08:14:16;19.67;;;15.17;;
13026;SDS011;6580;42.680;23.324;2023-02-15T08:16:44;21.73;;;15.43;;
13026;SDS011;6580;42.680;23.324;2023-02-15T08:19:13;20.53;;;15.77;;
13026;SDS011;6580;42.680;23.324;2023-02-15T08:21:44;20.43;;;15.70;;
13026;SDS011;6580;42.680;23.324;2023-02-15T08:24:13;19.83;;;15.73;;
13026;SDS011;6580;42.680;23.324;2023-02-15T08:26:41;22.17;;;15.23;;
13026;SDS011;6580;42.680;23.324;2023-02-15T08:29:11;20.67;;;15.27;;
13026;SDS011;6580;42.680;23.324;2023-02-15T08:31:42;18.80;;;15.70;;
13026;SDS011;6580;42.680;23.324;2023-02-15T08:34:10;21.77;;;16.10;;
13026;SDS011;6580;42.680;23.324;2023-02-15T08:36:39;20.17;;;15.27;;
13026;SDS011;6580;42.680;23.324;2023-02-15T08:39:08;22.17;;;17.80;;
13026;SDS011;6580;42.680;23.324;2023-02-15T08:41:36;19.90;;;16.67;;
13026;SDS011;6580;42.680;23.324;2023-02-15T08:44:06;24.07;;;16.57;;
13026;SDS011;6580;42.680;23.324;2023-02-15T08:46:36;19.73;;;14.77;;
13026;SDS011;6580;42.680;23.324;2023-02-15T08:49:04;20.87;;;15.33;;
13026;SDS011;6580;42.680;23.324;2023-02-15T08:51:33;21.30;;;15.77;;
13026;SDS011;6580;42.680;23.324;2023-02-15T08:54:02;19.37;;;14.97;;
13026;SDS011;6580;42.680;23.324;2023-02-15T08:56:33;19.53;;;15.20;;
13026;SDS011;6580;42.680;23.324;2023-02-15T08:59:02;21.43;;;15.73;;
13026;SDS011;6580;42.680;23.324;2023-02-15T09:01:30;20.90;;;16.93;;
13026;SDS011;6580;42.680;23.324;2023-02-15T09:03:59;19.50;;;16.27;;
13026;SDS011;6580;42.680;23.324;2023-02-15T09:06:29;21.37;;;15.27;;
13026;SDS011;6580;42.680;23.324;2023-02-15T09:08:56;19.83;;;14.93;;
13026;SDS011;6580;42.680;23.324;2023-02-15T09:11:23;21.63;;;16.83;;
13026;SDS011;6580;42.680;23.324;2023-02-15T09:13:54;21.77;;;16.43;;
13026;SDS011;6580;42.680;23.324;2023-02-15T09:16:23;20.63;;;15.47;;
13026;SDS011;6580;42.680;23.324;2023-02-15T09:18:54;20.93;;;15.57;;
13026;SDS011;6580;42.680;23.324;2023-02-15T09:21:23;17.73;;;14.53;;
13026;SDS011;6580;42.680;23.324;2023-02-15T09:23:52;17.67;;;14.10;;
13026;SDS011;6580;42.680;23.324;2023-02-15T09:26:23;18.50;;;15.70;;
13026;SDS011;6580;42.680;23.324;2023-02-15T09:28:54;17.47;;;14.33;;
13026;SDS011;6580;42.680;23.324;2023-02-15T09:31:23;17.10;;;14.43;;
13026;SDS011;6580;42.680;23.324;2023-02-15T09:33:52;19.03;;;15.00;;
13026;SDS011;6580;42.680;23.324;2023-02-15T09:36:20;18.53;;;15.87;;
13026;SDS011;6580;42.680;23.324;2023-02-15T09:38:52;21.40;;;16.00;;
13026;SDS011;6580;42.680;23.324;2023-02-15T09:41:36;17.63;;;15.73;;
13026;SDS011;6580;42.680;23.324;2023-02-15T09:44:24;17.80;;;14.00;;
13026;SDS011;6580;42.680;23.324;2023-02-15T09:47:07;18.23;;;14.87;;
13026;SDS011;6580;42.680;23.324;2023-02-15T09:49:49;21.83;;;15.50;;
13026;SDS011;6580;42.680;23.324;2023-02-15T09:55:28;19.60;;;15.60;;
13026;SDS011;6580;42.680;23.324;2023-02-15T09:58:10;20.47;;;15.53;;
13026;SDS011;6580;42.680;23.324;2023-02-15T10:00:50;18.93;;;15.63;;
13026;SDS011;6580;42.680;23.324;2023-02-15T10:03:29;17.97;;;14.50;;
13026;SDS011;6580;42.680;23.324;2023-02-15T10:06:14;17.30;;;15.07;;
13026;SDS011;6580;42.680;23.324;2023-02-15T10:09:02;18.70;;;16.57;;
13026;SDS011;6580;42.680;23.324;2023-02-15T10:11:40;19.03;;;16.53;;
13026;SDS011;6580;42.680;23.324;2023-02-15T10:14:20;22.07;;;18.37;;
13026;SDS011;6580;42.680;23.324;2023-02-15T10:17:06;17.37;;;15.43;;
13026;SDS011;6580;42.680;23.324;2023-02-15T10:19:42;17.77;;;14.97;;
13026;SDS011;6580;42.680;23.324;2023-02-15T10:22:25;20.83;;;17.07;;
13026;SDS011;6580;42.680;23.324;2023-02-15T10:25:06;24.20;;;19.20;;
13026;SDS011;6580;42.680;23.324;2023-02-15T10:27:51;20.73;;;15.87;;
13026;SDS011;6580;42.680;23.324;2023-02-15T10:30:18;23.07;;;18.80;;
13026;SDS011;6580;42.680;23.324;2023-02-15T10:32:57;21.87;;;17.50;;
13026;SDS011;6580;42.680;23.324;2023-02-15T10:35:30;20.37;;;16.60;;
13026;SDS011;6580;42.680;23.324;2023-02-15T10:38:13;20.43;;;16.90;;
13026;SDS011;6580;42.680;23.324;2023-02-15T10:40:51;19.73;;;16.13;;
13026;SDS011;6580;42.680;23.324;2023-02-15T10:43:39;18.73;;;15.90;;
13026;SDS011;6580;42.680;23.324;2023-02-15T10:46:31;19.73;;;16.60;;
13026;SDS011;6580;42.680;23.324;2023-02-15T10:49:19;18.87;;;16.77;;
13026;SDS011;6580;42.680;23.324;2023-02-15T10:52:02;17.87;;;15.57;;
13026;SDS011;6580;42.680;23.324;2023-02-15T10:54:40;20.23;;;16.47;;
13026;SDS011;6580;42.680;23.324;2023-02-15T10:57:15;22.77;;;17.90;;
13026;SDS011;6580;42.680;23.324;2023-02-15T10:59:55;19.20;;;17.03;;
13026;SDS011;6580;42.680;23.324;2023-02-15T11:02:34;20.17;;;16.63;;
13026;SDS011;6580;42.680;23.324;2023-02-15T11:05:22;19.73;;;16.60;;
13026;SDS011;6580;42.680;23.324;2023-02-15T11:08:03;20.27;;;17.13;;
13026;SDS011;6580;42.680;23.324;2023-02-15T11:10:35;20.07;;;17.70;;
13026;SDS011;6580;42.680;23.324;2023-02-15T11:13:07;18.13;;;16.23;;
13026;SDS011;6580;42.680;23.324;2023-02-15T11:15:39;19.10;;;17.07;;
13026;SDS011;6580;42.680;23.324;2023-02-15T11:18:11;21.10;;;17.23;;
13026;SDS011;6580;42.680;23.324;2023-02-15T11:20:44;18.93;;;16.70;;
13026;SDS011;6580;42.680;23.324;2023-02-15T11:23:18;20.97;;;17.20;;
13026;SDS011;6580;42.680;23.324;2023-02-15T11:25:48;21.47;;;18.67;;
13026;SDS011;6580;42.680;23.324;2023-02-15T11:28:22;18.97;;;16.33;;
13026;SDS011;6580;42.680;23.324;2023-02-15T11:30:54;18.40;;;16.50;;
13026;SDS011;6580;42.680;23.324;2023-02-15T11:33:22;19.43;;;17.40;;
13026;SDS011;6580;42.680;23.324;2023-02-15T11:35:55;24.53;;;20.63;;
13026;SDS011;6580;42.680;23.324;2023-02-15T11:38:27;22.47;;;18.30;;
13026;SDS011;6580;42.680;23.324;2023-02-15T11:40:59;19.10;;;17.07;;
13026;SDS011;6580;42.680;23.324;2023-02-15T11:43:32;19.33;;;17.33;;
13026;SDS011;6580;42.680;23.324;2023-02-15T11:46:03;17.47;;;15.67;;
13026;SDS011;6580;42.680;23.324;2023-02-15T11:48:31;18.80;;;16.90;;
13026;SDS011;6580;42.680;23.324;2023-02-15T11:51:03;19.33;;;17.33;;
13026;SDS011;6580;42.680;23.324;2023-02-15T11:53:32;20.73;;;18.63;;
13026;SDS011;6580;42.680;23.324;2023-02-15T11:56:00;20.57;;;18.47;;
13026;SDS011;6580;42.680;23.324;2023-02-15T11:58:30;20.73;;;17.07;;
13026;SDS011;6580;42.680;23.324;2023-02-15T12:01:07;21.83;;;18.77;;
13026;SDS011;6580;42.680;23.324;2023-02-15T12:03:45;20.83;;;18.20;;
13026;SDS011;6580;42.680;23.324;2023-02-15T12:06:19;19.63;;;17.63;;
13026;SDS011;6580;42.680;23.324;2023-02-15T12:08:55;20.47;;;18.37;;
13026;SDS011;6580;42.680;23.324;2023-02-15T12:11:31;21.43;;;19.13;;
13026;SDS011;6580;42.680;23.324;2023-02-15T12:14:01;19.93;;;17.93;;
13026;SDS011;6580;42.680;23.324;2023-02-15T12:16:32;18.93;;;16.93;;
13026;SDS011;6580;42.680;23.324;2023-02-15T12:19:10;19.27;;;17.20;;
13026;SDS011;6580;42.680;23.324;2023-02-15T12:21:56;21.80;;;18.03;;
13026;SDS011;6580;42.680;23.324;2023-02-15T12:24:25;18.17;;;16.23;;
13026;SDS011;6580;42.680;23.324;2023-02-15T12:27:01;18.50;;;16.50;;
13026;SDS011;6580;42.680;23.324;2023-02-15T12:29:31;20.17;;;18.07;;
13026;SDS011;6580;42.680;23.324;2023-02-15T12:32:05;20.50;;;17.00;;
13026;SDS011;6580;42.680;23.324;2023-02-15T12:34:37;18.00;;;16.10;;
13026;SDS011;6580;42.680;23.324;2023-02-15T12:37:15;19.07;;;17.07;;
13026;SDS011;6580;42.680;23.324;2023-02-15T12:39:51;19.57;;;17.07;;
13026;SDS011;6580;42.680;23.324;2023-02-15T12:42:20;19.37;;;17.33;;
13026;SDS011;6580;42.680;23.324;2023-02-15T12:44:56;18.50;;;16.60;;
13026;SDS011;6580;42.680;23.324;2023-02-15T12:47:25;18.97;;;17.00;;
13026;SDS011;6580;42.680;23.324;2023-02-15T12:50:07;19.47;;;17.57;;
13026;SDS011;6580;42.680;23.324;2023-02-15T12:52:44;19.57;;;17.57;;
13026;SDS011;6580;42.680;23.324;2023-02-15T12:55:23;20.20;;;18.10;;
13026;SDS011;6580;42.680;23.324;2023-02-15T12:58:04;19.43;;;17.30;;
13026;SDS011;6580;42.680;23.324;2023-02-15T13:00:32;18.93;;;16.93;;
13026;SDS011;6580;42.680;23.324;2023-02-15T13:03:00;20.70;;;18.43;;
13026;SDS011;6580;42.680;23.324;2023-02-15T13:05:29;18.67;;;16.77;;
13026;SDS011;6580;42.680;23.324;2023-02-15T13:08:00;19.23;;;17.13;;
13026;SDS011;6580;42.680;23.324;2023-02-15T13:10:33;19.43;;;17.20;;
13026;SDS011;6580;42.680;23.324;2023-02-15T13:13:08;19.40;;;17.30;;
13026;SDS011;6580;42.680;23.324;2023-02-15T13:15:37;19.67;;;16.97;;
13026;SDS011;6580;42.680;23.324;2023-02-15T13:18:10;19.00;;;17.10;;
13026;SDS011;6580;42.680;23.324;2023-02-15T13:23:32;19.50;;;17.40;;
13026;SDS011;6580;42.680;23.324;2023-02-15T13:26:02;19.00;;;16.90;;
13026;SDS011;6580;42.680;23.324;2023-02-15T13:28:33;20.20;;;18.10;;
13026;SDS011;6580;42.680;23.324;2023-02-15T13:31:08;20.60;;;18.03;;
13026;SDS011;6580;42.680;23.324;2023-02-15T13:33:39;20.13;;;18.07;;
13026;SDS011;6580;42.680;23.324;2023-02-15T13:36:12;21.40;;;18.73;;
13026;SDS011;6580;42.680;23.324;2023-02-15T13:38:48;20.67;;;17.10;;
13026;SDS011;6580;42.680;23.324;2023-02-15T13:41:23;21.40;;;17.17;;
13026;SDS011;6580;42.680;23.324;2023-02-15T13:43:59;18.97;;;16.60;;
13026;SDS011;6580;42.680;23.324;2023-02-15T13:46:38;18.43;;;16.43;;
13026;SDS011;6580;42.680;23.324;2023-02-15T13:49:21;20.27;;;18.17;;
13026;SDS011;6580;42.680;23.324;2023-02-15T13:52:01;20.00;;;17.73;;
13026;SDS011;6580;42.680;23.324;2023-02-15T13:57:43;22.57;;;17.63;;
13026;SDS011;6580;42.680;23.324;2023-02-15T14:00:35;23.17;;;18.37;;
13026;SDS011;6580;42.680;23.324;2023-02-15T14:06:09;19.67;;;17.53;;
13026;SDS011;6580;42.680;23.324;2023-02-15T14:08:54;22.23;;;18.80;;
13026;SDS011;6580;42.680;23.324;2023-02-15T14:11:30;22.57;;;18.13;;
13026;SDS011;6580;42.680;23.324;2023-02-15T14:14:25;20.73;;;18.07;;
13026;SDS011;6580;42.680;23.324;2023-02-15T14:17:07;22.77;;;18.43;;
13026;SDS011;6580;42.680;23.324;2023-02-15T14:19:44;19.33;;;17.17;;
13026;SDS011;6580;42.680;23.324;2023-02-15T14:22:18;19.50;;;17.13;;
13026;SDS011;6580;42.680;23.324;2023-02-15T14:24:56;20.63;;;16.97;;
13026;SDS011;6580;42.680;23.324;2023-02-15T14:27:45;21.80;;;18.67;;
13026;SDS011;6580;42.680;23.324;2023-02-15T14:30:24;25.30;;;19.50;;
13026;SDS011;6580;42.680;23.324;2023-02-15T14:32:54;22.90;;;18.23;;
13026;SDS011;6580;42.680;23.324;2023-02-15T14:35:27;24.03;;;19.47;;
13026;SDS011;6580;42.680;23.324;2023-02-15T14:37:58;24.23;;;20.17;;
13026;SDS011;6580;42.680;23.324;2023-02-15T14:40:34;25.80;;;20.50;;
13026;SDS011;6580;42.680;23.324;2023-02-15T14:43:34;26.20;;;19.80;;
13026;SDS011;6580;42.680;23.324;2023-02-15T14:46:19;24.20;;;19.27;;
13026;SDS011;6580;42.680;23.324;2023-02-15T14:48:51;25.80;;;19.37;;
13026;SDS011;6580;42.680;23.324;2023-02-15T14:57:22;24.10;;;19.07;;
13026;SDS011;6580;42.680;23.324;2023-02-15T14:59:53;24.13;;;19.20;;
13026;SDS011;6580;42.680;23.324;2023-02-15T15:02:24;25.03;;;20.67;;
13026;SDS011;6580;42.680;23.324;2023-02-15T15:04:56;24.30;;;19.73;;
13026;SDS011;6580;42.680;23.324;2023-02-15T15:07:28;20.47;;;18.07;;
13026;SDS011;6580;42.680;23.324;2023-02-15T15:10:06;24.57;;;18.47;;
13026;SDS011;6580;42.680;23.324;2023-02-15T15:12:55;20.00;;;17.03;;
13026;SDS011;6580;42.680;23.324;2023-02-15T15:15:32;23.50;;;18.43;;
13026;SDS011;6580;42.680;23.324;2023-02-15T15:18:04;23.57;;;18.17;;